sensor_id;sensor_type;location;lat;lon;timestamp;P1;durP1;ratioP1;P2;durP2;ratioP2
70313;SDS011;71040;47.526;18.986;2024-03-06T00:00:42;15.95;;;10.98;;
70313;SDS011;71040;47.526;18.986;2024-03-06T00:05:42;14.30;;;10.40;;
70313;SDS011;71040;47.526;18.986;2024-03-06T00:10:45;15.65;;;11.18;;
70313;SDS011;71040;47.526;18.986;2024-03-06T00:15:47;16.03;;;11.07;;
70313;SDS011;71040;47.526;18.986;2024-03-06T00:20:48;15.35;;;10.85;;
70313;SDS011;71040;47.526;18.986;2024-03-06T00:25:48;15.70;;;10.67;;
70313;SDS011;71040;47.526;18.986;2024-03-06T00:30:51;17.23;;;11.73;;
70313;SDS011;71040;47.526;18.986;2024-03-06T00:35:51;13.80;;;9.88;;
70313;SDS011;71040;47.526;18.986;2024-03-06T00:40:52;16.20;;;11.17;;
70313;SDS011;71040;47.526;18.986;2024-03-06T00:45:55;15.40;;;11.43;;
70313;SDS011;71040;47.526;18.986;2024-03-06T00:50:59;16.58;;;10.90;;
70313;SDS011;71040;47.526;18.986;2024-03-06T00:56:02;15.40;;;11.33;;
70313;SDS011;71040;47.526;18.986;2024-03-06T01:01:03;14.63;;;10.18;;
70313;SDS011;71040;47.526;18.986;2024-03-06T01:06:04;15.60;;;10.75;;
70313;SDS011;71040;47.526;18.986;2024-03-06T01:11:04;16.03;;;10.93;;
70313;SDS011;71040;47.526;18.986;2024-03-06T01:16:07;15.95;;;10.70;;
70313;SDS011;71040;47.526;18.986;2024-03-06T01:21:07;17.00;;;10.77;;
70313;SDS011;71040;47.526;18.986;2024-03-06T01:26:10;14.70;;;10.77;;
70313;SDS011;71040;47.526;18.986;2024-03-06T01:31:13;14.57;;;10.25;;
70313;SDS011;71040;47.526;18.986;2024-03-06T01:36:16;16.38;;;10.30;;
70313;SDS011;71040;47.526;18.986;2024-03-06T01:41:19;15.32;;;10.52;;
70313;SDS011;71040;47.526;18.986;2024-03-06T01:46:22;15.40;;;10.90;;
70313;SDS011;71040;47.526;18.986;2024-03-06T01:51:22;16.17;;;10.53;;
70313;SDS011;71040;47.526;18.986;2024-03-06T01:56:26;18.00;;;11.15;;
70313;SDS011;71040;47.526;18.986;2024-03-06T02:01:27;16.05;;;10.45;;
70313;SDS011;71040;47.526;18.986;2024-03-06T02:06:30;17.92;;;11.55;;
70313;SDS011;71040;47.526;18.986;2024-03-06T02:11:38;15.30;;;10.63;;
70313;SDS011;71040;47.526;18.986;2024-03-06T02:16:44;15.40;;;10.57;;
70313;SDS011;71040;47.526;18.986;2024-03-06T02:21:47;14.32;;;9.88;;
70313;SDS011;71040;47.526;18.986;2024-03-06T02:26:53;18.27;;;11.48;;
70313;SDS011;71040;47.526;18.986;2024-03-06T02:31:53;16.10;;;10.90;;
70313;SDS011;71040;47.526;18.986;2024-03-06T02:36:56;17.60;;;11.23;;
70313;SDS011;71040;47.526;18.986;2024-03-06T02:41:56;17.17;;;11.73;;
70313;SDS011;71040;47.526;18.986;2024-03-06T02:46:57;17.27;;;11.57;;
70313;SDS011;71040;47.526;18.986;2024-03-06T02:51:57;17.38;;;11.18;;
70313;SDS011;71040;47.526;18.986;2024-03-06T02:57:00;15.02;;;10.45;;
70313;SDS011;71040;47.526;18.986;2024-03-06T03:02:01;15.43;;;11.52;;
70313;SDS011;71040;47.526;18.986;2024-03-06T03:07:05;15.80;;;11.18;;
70313;SDS011;71040;47.526;18.986;2024-03-06T03:12:06;15.73;;;11.45;;
70313;SDS011;71040;47.526;18.986;2024-03-06T03:17:08;17.00;;;11.15;;
70313;SDS011;71040;47.526;18.986;2024-03-06T03:22:17;16.40;;;11.13;;
70313;SDS011;71040;47.526;18.986;2024-03-06T03:27:20;16.40;;;10.63;;
70313;SDS011;71040;47.526;18.986;2024-03-06T03:32:23;16.42;;;10.93;;
70313;SDS011;71040;47.526;18.986;2024-03-06T03:37:23;16.33;;;10.47;;
70313;SDS011;71040;47.526;18.986;2024-03-06T03:42:26;17.02;;;10.85;;
70313;SDS011;71040;47.526;18.986;2024-03-06T03:47:28;17.17;;;10.05;;
70313;SDS011;71040;47.526;18.986;2024-03-06T03:52:34;16.05;;;11.05;;
70313;SDS011;71040;47.526;18.986;2024-03-06T03:57:34;15.50;;;10.63;;
70313;SDS011;71040;47.526;18.986;2024-03-06T04:02:35;14.73;;;10.60;;
70313;SDS011;71040;47.526;18.986;2024-03-06T04:07:38;17.30;;;11.95;;
70313;SDS011;71040;47.526;18.986;2024-03-06T04:12:38;15.88;;;10.00;;
70313;SDS011;71040;47.526;18.986;2024-03-06T04:17:39;13.27;;;9.55;;
70313;SDS011;71040;47.526;18.986;2024-03-06T04:22:41;15.15;;;10.60;;
70313;SDS011;71040;47.526;18.986;2024-03-06T04:27:46;15.98;;;11.05;;
70313;SDS011;71040;47.526;18.986;2024-03-06T04:32:49;12.88;;;9.45;;
70313;SDS011;71040;47.526;18.986;2024-03-06T04:37:50;15.30;;;10.95;;
70313;SDS011;71040;47.526;18.986;2024-03-06T04:42:50;14.10;;;9.55;;
70313;SDS011;71040;47.526;18.986;2024-03-06T04:47:50;15.20;;;9.97;;
70313;SDS011;71040;47.526;18.986;2024-03-06T04:52:51;14.70;;;10.23;;
70313;SDS011;71040;47.526;18.986;2024-03-06T04:57:53;13.82;;;9.73;;
70313;SDS011;71040;47.526;18.986;2024-03-06T05:02:56;14.77;;;9.83;;
70313;SDS011;71040;47.526;18.986;2024-03-06T05:07:59;12.57;;;9.18;;
70313;SDS011;71040;47.526;18.986;2024-03-06T05:13:00;13.52;;;9.68;;
70313;SDS011;71040;47.526;18.986;2024-03-06T05:18:00;13.35;;;9.30;;
70313;SDS011;71040;47.526;18.986;2024-03-06T05:23:03;16.38;;;9.68;;
70313;SDS011;71040;47.526;18.986;2024-03-06T05:28:04;12.95;;;9.07;;
70313;SDS011;71040;47.526;18.986;2024-03-06T05:33:07;12.65;;;8.82;;
70313;SDS011;71040;47.526;18.986;2024-03-06T05:38:13;14.43;;;9.48;;
70313;SDS011;71040;47.526;18.986;2024-03-06T05:43:13;12.33;;;8.33;;
70313;SDS011;71040;47.526;18.986;2024-03-06T05:48:13;12.53;;;8.37;;
70313;SDS011;71040;47.526;18.986;2024-03-06T05:53:17;13.25;;;8.40;;
70313;SDS011;71040;47.526;18.986;2024-03-06T05:58:17;12.67;;;8.87;;
70313;SDS011;71040;47.526;18.986;2024-03-06T06:03:20;11.57;;;8.37;;
70313;SDS011;71040;47.526;18.986;2024-03-06T06:08:20;10.02;;;7.85;;
70313;SDS011;71040;47.526;18.986;2024-03-06T06:13:21;13.90;;;8.67;;
70313;SDS011;71040;47.526;18.986;2024-03-06T06:18:27;12.82;;;8.75;;
70313;SDS011;71040;47.526;18.986;2024-03-06T06:23:28;11.93;;;8.20;;
70313;SDS011;71040;47.526;18.986;2024-03-06T06:28:28;10.50;;;7.73;;
70313;SDS011;71040;47.526;18.986;2024-03-06T06:33:29;11.80;;;8.27;;
70313;SDS011;71040;47.526;18.986;2024-03-06T06:38:29;13.20;;;7.85;;
70313;SDS011;71040;47.526;18.986;2024-03-06T06:43:32;9.77;;;7.28;;
70313;SDS011;71040;47.526;18.986;2024-03-06T06:48:33;12.80;;;8.13;;
70313;SDS011;71040;47.526;18.986;2024-03-06T06:53:33;11.93;;;7.13;;
70313;SDS011;71040;47.526;18.986;2024-03-06T06:58:36;11.07;;;7.50;;
70313;SDS011;71040;47.526;18.986;2024-03-06T07:03:42;9.55;;;6.97;;
70313;SDS011;71040;47.526;18.986;2024-03-06T07:08:43;9.90;;;6.73;;
70313;SDS011;71040;47.526;18.986;2024-03-06T07:13:48;9.43;;;6.75;;
70313;SDS011;71040;47.526;18.986;2024-03-06T07:18:53;9.75;;;7.30;;
70313;SDS011;71040;47.526;18.986;2024-03-06T07:23:54;11.68;;;8.15;;
70313;SDS011;71040;47.526;18.986;2024-03-06T07:28:54;10.40;;;7.17;;
70313;SDS011;71040;47.526;18.986;2024-03-06T07:33:57;8.70;;;6.17;;
70313;SDS011;71040;47.526;18.986;2024-03-06T07:39:00;9.68;;;6.65;;
70313;SDS011;71040;47.526;18.986;2024-03-06T07:44:03;9.32;;;6.40;;
70313;SDS011;71040;47.526;18.986;2024-03-06T07:49:08;9.75;;;6.43;;
70313;SDS011;71040;47.526;18.986;2024-03-06T07:54:08;9.45;;;6.88;;
70313;SDS011;71040;47.526;18.986;2024-03-06T07:59:11;10.00;;;6.53;;
70313;SDS011;71040;47.526;18.986;2024-03-06T08:04:15;7.95;;;5.75;;
70313;SDS011;71040;47.526;18.986;2024-03-06T08:09:18;9.48;;;6.47;;
70313;SDS011;71040;47.526;18.986;2024-03-06T08:14:19;9.27;;;5.90;;
70313;SDS011;71040;47.526;18.986;2024-03-06T08:19:21;8.73;;;6.05;;
70313;SDS011;71040;47.526;18.986;2024-03-06T08:24:25;7.85;;;5.53;;
70313;SDS011;71040;47.526;18.986;2024-03-06T08:29:26;8.77;;;5.90;;
70313;SDS011;71040;47.526;18.986;2024-03-06T08:34:28;9.45;;;5.60;;
70313;SDS011;71040;47.526;18.986;2024-03-06T08:39:33;9.43;;;6.40;;
70313;SDS011;71040;47.526;18.986;2024-03-06T08:44:36;7.45;;;5.55;;
70313;SDS011;71040;47.526;18.986;2024-03-06T08:49:37;7.75;;;5.57;;
70313;SDS011;71040;47.526;18.986;2024-03-06T08:54:37;8.40;;;5.90;;
70313;SDS011;71040;47.526;18.986;2024-03-06T08:59:37;8.57;;;5.90;;
70313;SDS011;71040;47.526;18.986;2024-03-06T09:04:43;6.78;;;5.30;;
70313;SDS011;71040;47.526;18.986;2024-03-06T09:09:44;9.80;;;5.93;;
70313;SDS011;71040;47.526;18.986;2024-03-06T09:14:48;8.18;;;5.60;;
70313;SDS011;71040;47.526;18.986;2024-03-06T09:19:53;6.88;;;5.43;;
70313;SDS011;71040;47.526;18.986;2024-03-06T09:24:56;9.00;;;6.25;;
70313;SDS011;71040;47.526;18.986;2024-03-06T09:30:07;7.47;;;4.95;;
70313;SDS011;71040;47.526;18.986;2024-03-06T09:35:16;7.47;;;5.55;;
70313;SDS011;71040;47.526;18.986;2024-03-06T09:40:19;6.97;;;5.30;;
70313;SDS011;71040;47.526;18.986;2024-03-06T09:45:22;9.13;;;6.63;;
70313;SDS011;71040;47.526;18.986;2024-03-06T09:50:29;8.98;;;5.78;;
70313;SDS011;71040;47.526;18.986;2024-03-06T09:55:36;7.25;;;4.85;;
70313;SDS011;71040;47.526;18.986;2024-03-06T10:00:39;7.47;;;5.43;;
70313;SDS011;71040;47.526;18.986;2024-03-06T10:05:44;6.90;;;5.60;;
70313;SDS011;71040;47.526;18.986;2024-03-06T10:10:47;10.07;;;5.93;;
70313;SDS011;71040;47.526;18.986;2024-03-06T10:16:03;7.90;;;5.07;;
70313;SDS011;71040;47.526;18.986;2024-03-06T10:21:10;7.70;;;5.90;;
70313;SDS011;71040;47.526;18.986;2024-03-06T10:26:11;10.52;;;5.82;;
70313;SDS011;71040;47.526;18.986;2024-03-06T10:31:12;9.65;;;5.40;;
70313;SDS011;71040;47.526;18.986;2024-03-06T10:36:16;8.65;;;5.43;;
70313;SDS011;71040;47.526;18.986;2024-03-06T10:41:16;8.90;;;5.83;;
70313;SDS011;71040;47.526;18.986;2024-03-06T10:46:27;7.53;;;5.75;;
70313;SDS011;71040;47.526;18.986;2024-03-06T10:51:30;9.52;;;5.75;;
70313;SDS011;71040;47.526;18.986;2024-03-06T10:56:40;8.02;;;5.88;;
70313;SDS011;71040;47.526;18.986;2024-03-06T11:01:43;7.93;;;5.82;;
70313;SDS011;71040;47.526;18.986;2024-03-06T11:06:46;7.53;;;5.35;;
70313;SDS011;71040;47.526;18.986;2024-03-06T11:11:49;7.93;;;5.30;;
70313;SDS011;71040;47.526;18.986;2024-03-06T11:17:09;7.90;;;5.80;;
70313;SDS011;71040;47.526;18.986;2024-03-06T11:22:10;7.15;;;5.18;;
70313;SDS011;71040;47.526;18.986;2024-03-06T11:27:10;8.23;;;5.60;;
70313;SDS011;71040;47.526;18.986;2024-03-06T11:32:16;8.60;;;5.40;;
70313;SDS011;71040;47.526;18.986;2024-03-06T11:37:20;8.55;;;5.53;;
70313;SDS011;71040;47.526;18.986;2024-03-06T11:42:32;7.20;;;5.13;;
70313;SDS011;71040;47.526;18.986;2024-03-06T11:47:42;7.15;;;5.25;;
70313;SDS011;71040;47.526;18.986;2024-03-06T11:52:59;8.20;;;5.25;;
70313;SDS011;71040;47.526;18.986;2024-03-06T11:57:59;7.80;;;5.22;;
70313;SDS011;71040;47.526;18.986;2024-03-06T12:02:59;7.67;;;5.63;;
70313;SDS011;71040;47.526;18.986;2024-03-06T12:08:02;7.80;;;5.77;;
70313;SDS011;71040;47.526;18.986;2024-03-06T12:13:03;8.07;;;5.63;;
70313;SDS011;71040;47.526;18.986;2024-03-06T12:18:04;7.72;;;5.32;;
70313;SDS011;71040;47.526;18.986;2024-03-06T12:23:07;7.68;;;5.07;;
70313;SDS011;71040;47.526;18.986;2024-03-06T12:28:07;7.63;;;5.73;;
70313;SDS011;71040;47.526;18.986;2024-03-06T12:33:10;8.15;;;5.50;;
70313;SDS011;71040;47.526;18.986;2024-03-06T12:38:15;21.20;;;12.45;;
70313;SDS011;71040;47.526;18.986;2024-03-06T12:43:16;20.27;;;10.82;;
70313;SDS011;71040;47.526;18.986;2024-03-06T12:48:16;18.40;;;11.80;;
70313;SDS011;71040;47.526;18.986;2024-03-06T12:53:21;19.38;;;11.82;;
70313;SDS011;71040;47.526;18.986;2024-03-06T12:58:22;17.17;;;11.25;;
70313;SDS011;71040;47.526;18.986;2024-03-06T13:03:22;19.63;;;10.40;;
70313;SDS011;71040;47.526;18.986;2024-03-06T13:08:25;16.23;;;10.77;;
70313;SDS011;71040;47.526;18.986;2024-03-06T13:13:34;18.60;;;10.73;;
70313;SDS011;71040;47.526;18.986;2024-03-06T13:18:39;22.40;;;14.32;;
70313;SDS011;71040;47.526;18.986;2024-03-06T13:23:40;23.58;;;16.33;;
70313;SDS011;71040;47.526;18.986;2024-03-06T13:28:40;25.23;;;16.10;;
70313;SDS011;71040;47.526;18.986;2024-03-06T13:33:41;23.40;;;14.80;;
70313;SDS011;71040;47.526;18.986;2024-03-06T13:38:46;25.08;;;14.85;;
70313;SDS011;71040;47.526;18.986;2024-03-06T13:43:49;25.30;;;15.95;;
70313;SDS011;71040;47.526;18.986;2024-03-06T13:48:54;24.27;;;16.25;;
70313;SDS011;71040;47.526;18.986;2024-03-06T13:53:54;24.57;;;16.10;;
70313;SDS011;71040;47.526;18.986;2024-03-06T13:58:59;28.38;;;16.00;;
70313;SDS011;71040;47.526;18.986;2024-03-06T14:04:02;24.42;;;15.52;;
70313;SDS011;71040;47.526;18.986;2024-03-06T14:09:02;24.60;;;15.40;;
70313;SDS011;71040;47.526;18.986;2024-03-06T14:14:03;22.47;;;14.87;;
70313;SDS011;71040;47.526;18.986;2024-03-06T14:19:06;29.02;;;17.83;;
70313;SDS011;71040;47.526;18.986;2024-03-06T14:24:06;26.83;;;17.17;;
70313;SDS011;71040;47.526;18.986;2024-03-06T14:29:09;23.05;;;15.60;;
70313;SDS011;71040;47.526;18.986;2024-03-06T14:34:09;28.45;;;16.88;;
70313;SDS011;71040;47.526;18.986;2024-03-06T14:39:10;25.40;;;15.48;;
70313;SDS011;71040;47.526;18.986;2024-03-06T14:44:11;25.10;;;14.43;;
70313;SDS011;71040;47.526;18.986;2024-03-06T14:49:13;29.27;;;15.77;;
70313;SDS011;71040;47.526;18.986;2024-03-06T14:54:18;22.92;;;14.00;;
70313;SDS011;71040;47.526;18.986;2024-03-06T14:59:19;20.98;;;12.43;;
70313;SDS011;71040;47.526;18.986;2024-03-06T15:04:25;23.40;;;13.10;;
70313;SDS011;71040;47.526;18.986;2024-03-06T15:09:26;21.73;;;12.13;;
70313;SDS011;71040;47.526;18.986;2024-03-06T15:14:29;22.77;;;14.88;;
70313;SDS011;71040;47.526;18.986;2024-03-06T15:19:32;25.00;;;14.85;;
70313;SDS011;71040;47.526;18.986;2024-03-06T15:24:32;24.70;;;16.85;;
70313;SDS011;71040;47.526;18.986;2024-03-06T15:29:35;25.00;;;16.05;;
70313;SDS011;71040;47.526;18.986;2024-03-06T15:34:35;25.93;;;16.83;;
70313;SDS011;71040;47.526;18.986;2024-03-06T15:39:38;24.65;;;15.32;;
70313;SDS011;71040;47.526;18.986;2024-03-06T15:44:40;26.45;;;15.75;;
70313;SDS011;71040;47.526;18.986;2024-03-06T15:49:46;22.90;;;14.52;;
70313;SDS011;71040;47.526;18.986;2024-03-06T15:54:47;21.58;;;14.70;;
70313;SDS011;71040;47.526;18.986;2024-03-06T15:59:50;21.73;;;14.00;;
70313;SDS011;71040;47.526;18.986;2024-03-06T16:04:50;21.33;;;13.10;;
70313;SDS011;71040;47.526;18.986;2024-03-06T16:10:00;22.42;;;14.60;;
70313;SDS011;71040;47.526;18.986;2024-03-06T16:15:01;23.23;;;14.25;;
70313;SDS011;71040;47.526;18.986;2024-03-06T16:20:02;22.40;;;13.95;;
70313;SDS011;71040;47.526;18.986;2024-03-06T16:25:05;21.88;;;14.02;;
70313;SDS011;71040;47.526;18.986;2024-03-06T16:30:06;24.08;;;13.40;;
70313;SDS011;71040;47.526;18.986;2024-03-06T16:35:07;23.02;;;13.30;;
70313;SDS011;71040;47.526;18.986;2024-03-06T16:40:10;19.63;;;12.77;;
70313;SDS011;71040;47.526;18.986;2024-03-06T16:45:10;19.42;;;13.00;;
70313;SDS011;71040;47.526;18.986;2024-03-06T16:50:14;19.35;;;13.73;;
70313;SDS011;71040;47.526;18.986;2024-03-06T16:55:15;19.20;;;12.52;;
70313;SDS011;71040;47.526;18.986;2024-03-06T17:00:17;19.08;;;12.55;;
70313;SDS011;71040;47.526;18.986;2024-03-06T17:05:18;18.65;;;12.50;;
70313;SDS011;71040;47.526;18.986;2024-03-06T17:10:18;21.73;;;12.50;;
70313;SDS011;71040;47.526;18.986;2024-03-06T17:15:23;18.50;;;12.23;;
70313;SDS011;71040;47.526;18.986;2024-03-06T17:20:27;21.60;;;13.23;;
70313;SDS011;71040;47.526;18.986;2024-03-06T17:25:27;17.80;;;12.33;;
70313;SDS011;71040;47.526;18.986;2024-03-06T17:30:29;19.67;;;12.55;;
70313;SDS011;71040;47.526;18.986;2024-03-06T17:35:30;22.07;;;14.27;;
70313;SDS011;71040;47.526;18.986;2024-03-06T17:40:33;18.83;;;11.53;;
70313;SDS011;71040;47.526;18.986;2024-03-06T17:45:33;21.08;;;12.95;;
70313;SDS011;71040;47.526;18.986;2024-03-06T17:50:38;20.60;;;12.73;;
70313;SDS011;71040;47.526;18.986;2024-03-06T17:55:40;18.77;;;11.45;;
70313;SDS011;71040;47.526;18.986;2024-03-06T18:00:41;19.77;;;11.60;;
70313;SDS011;71040;47.526;18.986;2024-03-06T18:05:43;17.00;;;10.60;;
70313;SDS011;71040;47.526;18.986;2024-03-06T18:10:46;16.67;;;10.07;;
70313;SDS011;71040;47.526;18.986;2024-03-06T18:15:47;15.95;;;10.10;;
70313;SDS011;71040;47.526;18.986;2024-03-06T18:20:47;15.60;;;9.47;;
70313;SDS011;71040;47.526;18.986;2024-03-06T18:25:47;16.40;;;10.33;;
70313;SDS011;71040;47.526;18.986;2024-03-06T18:30:50;14.95;;;9.32;;
70313;SDS011;71040;47.526;18.986;2024-03-06T18:35:53;15.77;;;8.82;;
70313;SDS011;71040;47.526;18.986;2024-03-06T18:40:53;15.27;;;9.33;;
70313;SDS011;71040;47.526;18.986;2024-03-06T18:45:59;14.73;;;8.77;;
70313;SDS011;71040;47.526;18.986;2024-03-06T18:51:00;13.20;;;8.67;;
70313;SDS011;71040;47.526;18.986;2024-03-06T18:56:00;14.02;;;8.20;;
70313;SDS011;71040;47.526;18.986;2024-03-06T19:01:00;15.97;;;8.77;;
70313;SDS011;71040;47.526;18.986;2024-03-06T19:06:01;14.10;;;9.10;;
70313;SDS011;71040;47.526;18.986;2024-03-06T19:11:04;12.23;;;8.30;;
70313;SDS011;71040;47.526;18.986;2024-03-06T19:16:04;11.57;;;7.67;;
70313;SDS011;71040;47.526;18.986;2024-03-06T19:21:07;12.05;;;7.72;;
70313;SDS011;71040;47.526;18.986;2024-03-06T19:26:12;11.90;;;7.90;;
70313;SDS011;71040;47.526;18.986;2024-03-06T19:31:13;13.88;;;8.18;;
70313;SDS011;71040;47.526;18.986;2024-03-06T19:36:13;12.40;;;8.27;;
70313;SDS011;71040;47.526;18.986;2024-03-06T19:41:16;12.88;;;7.53;;
70313;SDS011;71040;47.526;18.986;2024-03-06T19:46:16;11.23;;;7.63;;
70313;SDS011;71040;47.526;18.986;2024-03-06T19:51:19;11.47;;;7.37;;
70313;SDS011;71040;47.526;18.986;2024-03-06T19:56:19;10.60;;;7.30;;
70313;SDS011;71040;47.526;18.986;2024-03-06T20:01:23;10.25;;;6.70;;
70313;SDS011;71040;47.526;18.986;2024-03-06T20:06:24;11.13;;;7.07;;
70313;SDS011;71040;47.526;18.986;2024-03-06T20:11:30;8.77;;;6.50;;
70313;SDS011;71040;47.526;18.986;2024-03-06T20:16:33;9.80;;;7.10;;
70313;SDS011;71040;47.526;18.986;2024-03-06T20:21:36;7.95;;;6.32;;
70313;SDS011;71040;47.526;18.986;2024-03-06T20:26:37;9.00;;;6.47;;
70313;SDS011;71040;47.526;18.986;2024-03-06T20:31:40;9.20;;;6.80;;
70313;SDS011;71040;47.526;18.986;2024-03-06T20:36:42;9.63;;;6.25;;
70313;SDS011;71040;47.526;18.986;2024-03-06T20:41:45;8.40;;;5.90;;
70313;SDS011;71040;47.526;18.986;2024-03-06T20:46:50;8.77;;;6.15;;
70313;SDS011;71040;47.526;18.986;2024-03-06T20:51:51;7.57;;;5.67;;
70313;SDS011;71040;47.526;18.986;2024-03-06T20:56:53;8.00;;;5.68;;
70313;SDS011;71040;47.526;18.986;2024-03-06T21:01:56;9.45;;;5.82;;
70313;SDS011;71040;47.526;18.986;2024-03-06T21:07:00;8.07;;;5.72;;
70313;SDS011;71040;47.526;18.986;2024-03-06T21:12:04;7.75;;;5.68;;
70313;SDS011;71040;47.526;18.986;2024-03-06T21:17:05;7.90;;;5.30;;
70313;SDS011;71040;47.526;18.986;2024-03-06T21:22:07;7.35;;;5.15;;
70313;SDS011;71040;47.526;18.986;2024-03-06T21:27:10;8.88;;;6.30;;
70313;SDS011;71040;47.526;18.986;2024-03-06T21:32:10;8.35;;;5.20;;
70313;SDS011;71040;47.526;18.986;2024-03-06T21:37:11;7.87;;;5.50;;
70313;SDS011;71040;47.526;18.986;2024-03-06T21:42:11;6.97;;;5.20;;
70313;SDS011;71040;47.526;18.986;2024-03-06T21:47:11;6.87;;;5.37;;
70313;SDS011;71040;47.526;18.986;2024-03-06T21:52:12;7.23;;;5.60;;
70313;SDS011;71040;47.526;18.986;2024-03-06T21:57:14;7.68;;;5.10;;
70313;SDS011;71040;47.526;18.986;2024-03-06T22:02:17;8.07;;;5.65;;
70313;SDS011;71040;47.526;18.986;2024-03-06T22:07:18;7.43;;;5.27;;
70313;SDS011;71040;47.526;18.986;2024-03-06T22:12:20;6.90;;;5.03;;
70313;SDS011;71040;47.526;18.986;2024-03-06T22:17:22;8.88;;;5.78;;
70313;SDS011;71040;47.526;18.986;2024-03-06T22:22:25;8.57;;;5.53;;
70313;SDS011;71040;47.526;18.986;2024-03-06T22:27:26;6.40;;;4.32;;
70313;SDS011;71040;47.526;18.986;2024-03-06T22:32:30;6.10;;;4.63;;
70313;SDS011;71040;47.526;18.986;2024-03-06T22:37:31;7.93;;;5.13;;
70313;SDS011;71040;47.526;18.986;2024-03-06T22:42:33;7.00;;;4.90;;
70313;SDS011;71040;47.526;18.986;2024-03-06T22:47:36;8.35;;;4.93;;
70313;SDS011;71040;47.526;18.986;2024-03-06T22:52:36;6.33;;;4.67;;
70313;SDS011;71040;47.526;18.986;2024-03-06T22:57:39;5.93;;;4.05;;
70313;SDS011;71040;47.526;18.986;2024-03-06T23:02:39;8.02;;;5.57;;
70313;SDS011;71040;47.526;18.986;2024-03-06T23:07:40;6.47;;;4.70;;
70313;SDS011;71040;47.526;18.986;2024-03-06T23:12:40;6.17;;;4.67;;
70313;SDS011;71040;47.526;18.986;2024-03-06T23:17:47;6.00;;;4.70;;
70313;SDS011;71040;47.526;18.986;2024-03-06T23:22:48;7.25;;;5.18;;
70313;SDS011;71040;47.526;18.986;2024-03-06T23:27:51;8.48;;;5.13;;
70313;SDS011;71040;47.526;18.986;2024-03-06T23:32:51;7.80;;;5.40;;
70313;SDS011;71040;47.526;18.986;2024-03-06T23:37:54;6.90;;;4.85;;
70313;SDS011;71040;47.526;18.986;2024-03-06T23:42:55;5.77;;;4.10;;
70313;SDS011;71040;47.526;18.986;2024-03-06T23:48:00;6.28;;;4.45;;
70313;SDS011;71040;47.526;18.986;2024-03-06T23:53:00;7.17;;;4.37;;
70313;SDS011;71040;47.526;18.986;2024-03-06T23:58:03;6.28;;;4.50;;
